Time;durP1;ratioP1;P1;durP2;ratioP2;P2;SDS_P1;SDS_P2;PMS_P1;PMS_P2;Temp;Humidity;BMP_temperature;BMP_pressure;BME280_temperature;BME280_humidity;BME280_pressure;Samples;Min_cycle;Max_cycle;Signal;HPM_P1;HPM_P2
2022/09/04 00:01:08;;;;;;;2.67;2.50;;;23.80;99.90;;;;;;5073744;28;20494;-66
2022/09/04 00:03:47;;;;;;;2.40;2.30;;;23.70;99.90;;;;;;5075866;28;20457;-66
2022/09/04 00:06:19;;;;;;;2.47;2.37;;;23.80;99.90;;;;;;5094359;28;20464;-66
2022/09/04 00:08:57;;;;;;;2.43;2.33;;;23.70;99.90;;;;;;5094167;28;20449;-66
2022/09/04 00:11:35;;;;;;;2.63;2.53;;;23.70;99.90;;;;;;5093838;28;20488;-66
2022/09/04 00:14:05;;;;;;;2.53;2.43;;;23.70;99.90;;;;;;5094147;28;20442;-66
2022/09/04 00:16:41;;;;;;;2.70;2.50;;;23.70;99.90;;;;;;5086456;28;20869;-66
2022/09/04 00:19:14;;;;;;;2.73;2.60;;;23.70;99.90;;;;;;5074993;28;20478;-66
2022/09/04 00:21:48;;;;;;;2.70;2.50;;;23.70;99.90;;;;;;5073376;28;20467;-66
2022/09/04 00:24:17;;;;;;;2.57;2.47;;;23.70;99.90;;;;;;5073813;28;20488;-66
2022/09/04 00:26:53;;;;;;;2.93;2.83;;;23.70;99.90;;;;;;5082337;28;21022;-66
2022/09/04 00:29:29;;;;;;;2.47;2.33;;;23.60;99.90;;;;;;5093855;28;20453;-66
2022/09/04 00:32:02;;;;;;;2.47;2.37;;;23.60;99.90;;;;;;5093340;28;20493;-66
2022/09/04 00:34:55;;;;;;;2.77;2.60;;;23.60;99.90;;;;;;5089212;28;20501;-66
2022/09/04 00:37:27;;;;;;;2.13;2.00;;;23.60;99.90;;;;;;5073290;28;20439;-66
2022/09/04 00:40:00;;;;;;;2.50;2.30;;;23.60;99.90;;;;;;5073102;28;20456;-66
2022/09/04 00:42:53;;;;;;;2.80;2.70;;;23.60;99.90;;;;;;5073173;28;20498;-66
2022/09/04 00:45:30;;;;;;;2.33;2.13;;;23.60;99.90;;;;;;5083895;28;20935;-66
2022/09/04 00:48:38;;;;;;;2.70;2.50;;;23.60;99.90;;;;;;5093499;28;20484;-66
2022/09/04 00:51:27;;;;;;;2.60;2.43;;;23.60;99.90;;;;;;5072395;28;20492;-66
2022/09/04 00:54:48;;;;;;;2.97;2.77;;;23.60;99.90;;;;;;5117785;22;20482;-60
2022/09/04 00:57:46;;;;;;;3.13;2.90;;;23.60;99.90;;;;;;4984732;28;20517;-61
2022/09/04 01:00:15;;;;;;;3.77;3.47;;;23.50;99.90;;;;;;5072770;28;20458;-60
2022/09/04 01:03:11;;;;;;;2.70;2.50;;;23.50;99.90;;;;;;5069744;28;20492;-60
2022/09/04 01:05:45;;;;;;;2.60;2.40;;;23.50;99.90;;;;;;5047302;28;20444;-61
2022/09/04 01:08:28;;;;;;;3.20;2.90;;;23.40;99.90;;;;;;5052612;28;20534;-61
2022/09/04 01:11:07;;;;;;;3.07;2.70;;;23.50;99.90;;;;;;5052499;28;20515;-61
2022/09/04 01:13:41;;;;;;;3.20;3.00;;;23.50;99.90;;;;;;5052948;28;20499;-61
2022/09/04 01:16:15;;;;;;;2.20;2.10;;;23.50;99.90;;;;;;5053094;28;20875;-61
2022/09/04 01:18:49;;;;;;;3.10;2.90;;;23.40;99.90;;;;;;5052708;28;20476;-61
2022/09/04 01:21:55;;;;;;;2.57;2.47;;;23.40;99.90;;;;;;5052075;28;20889;-62
2022/09/04 01:24:51;;;;;;;3.13;2.93;;;23.40;99.90;;;;;;5052363;28;20463;-61
2022/09/04 01:27:26;;;;;;;3.10;2.90;;;23.40;99.90;;;;;;5052405;28;20965;-62
2022/09/04 01:30:05;;;;;;;2.73;2.53;;;23.40;99.90;;;;;;5052245;28;20505;-61
2022/09/04 01:32:44;;;;;;;2.70;2.60;;;23.40;99.90;;;;;;5051909;28;20476;-61
2022/09/04 01:35:22;;;;;;;2.50;2.30;;;23.40;99.90;;;;;;5052263;28;20479;-62
2022/09/04 01:37:59;;;;;;;3.00;2.80;;;23.40;99.90;;;;;;5052172;28;20443;-62
2022/09/04 01:40:37;;;;;;;3.30;3.03;;;23.30;99.90;;;;;;5050717;28;20973;-61
2022/09/04 01:43:11;;;;;;;2.80;2.60;;;23.30;99.90;;;;;;5051996;28;20551;-61
2022/09/04 01:45:59;;;;;;;2.73;2.40;;;23.40;99.90;;;;;;5052038;28;20525;-61
2022/09/04 01:48:38;;;;;;;2.50;2.40;;;23.30;99.90;;;;;;5052081;28;20570;-61
2022/09/04 01:51:14;;;;;;;2.40;2.30;;;23.40;99.90;;;;;;5051420;28;20925;-61
2022/09/04 01:53:46;;;;;;;2.37;2.23;;;23.40;99.90;;;;;;5051750;28;20507;-61
2022/09/04 01:56:17;;;;;;;2.87;2.77;;;23.40;99.90;;;;;;5051967;28;20527;-61
2022/09/04 01:58:52;;;;;;;2.97;2.77;;;23.30;99.90;;;;;;5051828;28;20539;-61
2022/09/04 02:01:28;;;;;;;2.47;2.37;;;23.30;99.90;;;;;;5051640;28;21026;-61
2022/09/04 02:04:06;;;;;;;2.83;2.73;;;23.30;99.90;;;;;;5051429;28;20507;-61
2022/09/04 02:06:43;;;;;;;2.43;2.30;;;23.30;99.90;;;;;;5051698;28;20452;-61
2022/09/04 02:09:27;;;;;;;2.33;2.23;;;23.30;99.90;;;;;;5051861;28;20530;-62
2022/09/04 02:12:03;;;;;;;2.57;2.43;;;23.30;99.90;;;;;;5051363;28;20545;-61
2022/09/04 02:14:40;;;;;;;2.10;2.00;;;23.30;99.90;;;;;;5051359;28;20481;-61
2022/09/04 02:17:11;;;;;;;2.23;2.13;;;23.30;99.90;;;;;;5051564;28;20535;-61
2022/09/04 02:19:51;;;;;;;2.60;2.50;;;23.30;99.90;;;;;;5051402;28;20467;-61
2022/09/04 02:22:27;;;;;;;2.10;2.00;;;23.30;99.90;;;;;;5051617;28;20440;-61
2022/09/04 02:25:04;;;;;;;3.10;2.53;;;23.30;99.90;;;;;;5051520;28;20959;-61
2022/09/04 02:27:39;;;;;;;2.43;2.33;;;23.30;99.90;;;;;;5051242;28;20448;-61
2022/09/04 02:30:10;;;;;;;2.90;2.80;;;23.30;99.90;;;;;;5051426;28;20573;-61
2022/09/04 02:32:42;;;;;;;2.30;2.20;;;23.30;99.90;;;;;;5051240;28;20591;-59
2022/09/04 02:35:17;;;;;;;2.67;2.57;;;23.20;99.90;;;;;;5051430;28;20974;-61
2022/09/04 02:37:56;;;;;;;2.73;2.53;;;23.30;99.90;;;;;;5051268;28;20448;-61
2022/09/04 02:40:31;;;;;;;3.17;2.97;;;23.20;99.90;;;;;;5051229;28;20472;-61
2022/09/04 02:43:15;;;;;;;3.47;3.17;;;23.20;99.90;;;;;;5051363;28;20491;-60
2022/09/04 02:45:47;;;;;;;2.80;2.70;;;23.20;99.90;;;;;;5051260;28;20445;-60
2022/09/04 02:48:19;;;;;;;2.53;2.43;;;23.20;99.90;;;;;;5031506;28;20455;-62
2022/09/04 02:51:02;;;;;;;2.87;2.77;;;23.20;99.90;;;;;;5032018;28;20892;-60
2022/09/04 02:53:35;;;;;;;3.23;3.03;;;23.20;99.90;;;;;;5035273;28;20511;-60
2022/09/04 02:56:13;;;;;;;2.90;2.80;;;23.20;99.90;;;;;;5037964;28;20454;-59
2022/09/04 02:58:49;;;;;;;3.40;3.20;;;23.10;99.90;;;;;;5055311;28;20478;-61
2022/09/04 03:01:24;;;;;;;3.27;3.00;;;23.20;99.90;;;;;;5054994;28;20450;-61
2022/09/04 03:04:01;;;;;;;3.30;3.10;;;23.10;99.90;;;;;;5055093;28;20463;-60
2022/09/04 03:06:44;;;;;;;3.70;2.83;;;23.10;99.90;;;;;;5055171;28;20439;-61
2022/09/04 03:09:15;;;;;;;2.60;2.50;;;23.10;99.90;;;;;;5054848;28;20815;-61
2022/09/04 03:11:47;;;;;;;2.27;2.07;;;23.10;99.90;;;;;;5054650;28;20537;-61
2022/09/04 03:14:23;;;;;;;2.50;2.40;;;23.10;99.90;;;;;;5054891;28;20539;-61
2022/09/04 03:16:59;;;;;;;3.13;3.03;;;23.10;99.90;;;;;;5054938;28;20821;-61
2022/09/04 03:19:34;;;;;;;2.53;2.43;;;23.10;99.90;;;;;;5054927;28;20480;-61
2022/09/04 03:22:07;;;;;;;2.97;2.80;;;23.10;99.90;;;;;;5054402;28;20813;-60
2022/09/04 03:24:41;;;;;;;3.57;3.30;;;23.10;99.90;;;;;;5054715;28;20996;-57
2022/09/04 03:27:13;;;;;;;3.23;3.03;;;23.10;99.90;;;;;;5054849;28;20527;-59
2022/09/04 03:29:47;;;;;;;3.37;3.07;;;23.10;99.90;;;;;;5054652;28;20479;-61
2022/09/04 03:32:21;;;;;;;3.00;2.90;;;23.10;99.90;;;;;;5054486;28;20505;-58
2022/09/04 03:34:55;;;;;;;2.53;2.43;;;23.10;99.90;;;;;;5034697;28;20445;-61
2022/09/04 03:37:40;;;;;;;2.77;2.60;;;23.10;99.90;;;;;;5034555;28;20528;-59
2022/09/04 03:40:18;;;;;;;2.30;2.20;;;23.00;99.90;;;;;;5034409;28;20476;-61
2022/09/04 03:42:58;;;;;;;3.13;2.67;;;23.00;99.90;;;;;;5051579;28;20506;-59
2022/09/04 03:45:35;;;;;;;2.80;2.70;;;23.00;99.90;;;;;;5054353;28;20475;-61
2022/09/04 03:48:16;;;;;;;2.50;2.40;;;23.00;99.90;;;;;;5054151;28;20501;-60
2022/09/04 03:50:55;;;;;;;2.40;2.30;;;23.00;99.90;;;;;;5053919;28;20463;-60
2022/09/04 03:53:30;;;;;;;2.73;2.60;;;23.00;99.90;;;;;;5053949;28;20468;-60
2022/09/04 03:56:17;;;;;;;2.90;2.80;;;23.00;99.90;;;;;;5054231;28;20518;-62
2022/09/04 03:58:51;;;;;;;23.37;22.27;;;23.00;99.90;;;;;;5054126;28;20999;-60
2022/09/04 05:46:46;;;;;;;2.70;2.60;;;22.50;99.90;;;;;;5046085;28;20474;-59
2022/09/04 05:49:24;;;;;;;3.20;3.00;;;22.50;99.90;;;;;;5047204;28;20205;-62
2022/09/04 05:52:11;;;;;;;3.20;3.00;;;22.60;99.90;;;;;;5048985;28;20471;-62
2022/09/04 05:54:59;;;;;;;2.57;2.33;;;22.60;99.90;;;;;;5048554;28;20552;-60
2022/09/04 05:57:46;;;;;;;2.60;2.50;;;22.70;99.90;;;;;;5076893;22;21027;-63
2022/09/04 06:00:15;;;;;;;3.90;2.90;;;22.70;99.90;;;;;;5067022;28;20471;-63
2022/09/04 06:03:22;;;;;;;2.50;2.40;;;22.70;99.90;;;;;;5068532;28;20475;-62
2022/09/04 06:06:15;;;;;;;3.30;3.10;;;22.70;99.90;;;;;;5029067;28;20541;-63
2022/09/04 06:09:05;;;;;;;3.20;3.00;;;22.70;99.90;;;;;;5029173;28;20443;-63
2022/09/04 06:11:43;;;;;;;2.70;2.60;;;22.70;99.90;;;;;;5028780;28;20429;-63
2022/09/04 06:14:34;;;;;;;2.90;2.80;;;22.70;99.90;;;;;;5038741;28;20440;-66
2022/09/04 06:17:14;;;;;;;3.37;3.17;;;22.70;99.90;;;;;;5048256;28;20492;-67
2022/09/04 06:19:56;;;;;;;2.90;2.70;;;22.80;99.90;;;;;;5048141;28;20526;-64
2022/09/04 06:22:41;;;;;;;3.20;3.00;;;22.80;99.90;;;;;;5048274;28;20566;-62
2022/09/04 06:25:33;;;;;;;2.70;2.50;;;22.80;99.90;;;;;;5048293;28;20528;-62
2022/09/04 06:28:27;;;;;;;3.87;3.03;;;22.80;99.90;;;;;;5048327;28;21012;-64
2022/09/04 06:31:02;;;;;;;2.90;2.80;;;22.80;99.90;;;;;;5048203;28;20555;-64
2022/09/04 06:33:56;;;;;;;3.60;3.40;;;22.80;99.90;;;;;;5048000;28;20466;-64
2022/09/04 06:36:47;;;;;;;3.00;2.90;;;22.80;99.90;;;;;;5045774;28;20471;-64
2022/09/04 06:39:41;;;;;;;2.67;2.57;;;22.80;99.90;;;;;;5048305;28;20531;-64
2022/09/04 06:42:20;;;;;;;3.13;2.80;;;22.90;99.90;;;;;;5047634;28;20487;-64
2022/09/04 06:45:01;;;;;;;3.83;3.50;;;22.90;99.90;;;;;;5048428;28;20455;-67
2022/09/04 06:47:39;;;;;;;2.77;2.60;;;22.90;99.90;;;;;;5048238;28;20464;-66
2022/09/04 06:50:23;;;;;;;2.70;2.60;;;22.90;99.90;;;;;;5047300;28;20487;-65
2022/09/04 06:53:13;;;;;;;3.37;3.27;;;23.00;99.90;;;;;;5040519;28;20599;-62
2022/09/04 06:55:47;;;;;;;3.27;3.07;;;23.00;99.90;;;;;;5033286;28;20445;-63
2022/09/04 06:58:44;;;;;;;3.50;3.20;;;23.00;99.90;;;;;;5034486;28;20536;-62
2022/09/04 07:01:14;;;;;;;3.20;3.00;;;23.00;99.90;;;;;;5014604;28;20555;-64
2022/09/04 07:03:54;;;;;;;3.03;2.80;;;23.00;99.90;;;;;;5014440;28;20446;-64
2022/09/04 07:06:29;;;;;;;2.80;2.60;;;23.00;99.90;;;;;;5014593;28;20552;-63
2022/09/04 07:09:06;;;;;;;2.87;2.77;;;23.00;99.90;;;;;;5014448;28;20473;-65
2022/09/04 07:11:50;;;;;;;2.73;2.63;;;23.10;99.90;;;;;;5019299;28;20516;-65
2022/09/04 07:14:36;;;;;;;3.20;3.00;;;23.10;99.90;;;;;;5033987;28;20451;-65
2022/09/04 07:17:14;;;;;;;2.80;2.60;;;23.10;99.90;;;;;;5034017;28;20480;-64
2022/09/04 07:19:54;;;;;;;2.57;2.47;;;23.10;99.90;;;;;;5034056;28;20952;-66
2022/09/04 07:22:44;;;;;;;2.73;2.60;;;23.10;99.90;;;;;;5033533;28;20480;-63
2022/09/04 07:25:17;;;;;;;2.80;2.60;;;23.20;99.90;;;;;;5021557;28;20571;-63
2022/09/04 07:28:16;;;;;;;2.60;2.40;;;23.10;99.90;;;;;;5034025;28;20583;-62
2022/09/04 07:30:50;;;;;;;2.53;2.43;;;23.30;99.90;;;;;;5033996;28;20524;-63
2022/09/04 07:33:23;;;;;;;2.80;2.70;;;23.30;99.90;;;;;;5033860;28;20480;-63
2022/09/04 07:35:58;;;;;;;3.10;3.00;;;23.30;99.90;;;;;;5033795;28;20533;-63
2022/09/04 07:38:34;;;;;;;2.30;2.20;;;23.30;99.90;;;;;;5033495;28;20536;-66
2022/09/04 07:41:11;;;;;;;3.17;2.97;;;23.40;99.90;;;;;;5033598;28;20528;-65
2022/09/04 07:43:46;;;;;;;2.53;2.33;;;23.40;99.90;;;;;;5033419;28;20507;-65
2022/09/04 07:46:21;;;;;;;2.60;2.43;;;23.40;99.90;;;;;;5033542;28;20877;-65
2022/09/04 07:48:54;;;;;;;2.63;2.53;;;23.40;99.90;;;;;;5033035;28;20865;-65
2022/09/04 07:51:28;;;;;;;2.40;2.20;;;23.40;99.90;;;;;;5033053;28;20982;-63
2022/09/04 07:54:37;;;;;;;3.07;2.90;;;23.40;99.90;;;;;;5033187;28;20534;-62
2022/09/04 07:57:16;;;;;;;2.00;1.90;;;23.50;99.90;;;;;;5011971;28;20563;-67
2022/09/04 08:00:02;;;;;;;3.00;2.83;;;23.40;99.90;;;;;;5033037;28;20527;-67
2022/09/04 08:02:55;;;;;;;2.23;2.13;;;23.50;99.90;;;;;;5033019;28;20512;-67
2022/09/04 08:05:29;;;;;;;2.97;2.77;;;23.50;99.90;;;;;;5032220;28;20453;-67
2022/09/04 08:08:19;;;;;;;2.70;2.50;;;23.50;99.90;;;;;;5032887;28;20551;-67
2022/09/04 08:11:02;;;;;;;2.50;2.30;;;23.50;99.90;;;;;;5033072;28;20449;-64
2022/09/04 08:13:47;;;;;;;2.60;2.50;;;23.50;99.90;;;;;;5032849;28;20888;-66
2022/09/04 08:16:20;;;;;;;2.90;2.70;;;23.50;99.90;;;;;;5032988;28;20851;-67
2022/09/04 08:19:10;;;;;;;2.40;2.30;;;23.50;99.90;;;;;;5032718;28;20489;-66
2022/09/04 08:21:40;;;;;;;3.73;3.43;;;23.60;99.90;;;;;;5032994;28;20473;-68
2022/09/04 08:24:43;;;;;;;2.37;2.27;;;23.60;99.90;;;;;;5032668;28;20479;-68
2022/09/04 08:27:22;;;;;;;2.87;2.67;;;23.60;99.90;;;;;;5032532;28;20467;-69
2022/09/04 08:30:03;;;;;;;2.73;2.53;;;23.60;99.90;;;;;;5032689;28;20532;-71
2022/09/04 08:33:01;;;;;;;2.60;2.50;;;23.60;99.90;;;;;;5032421;28;20453;-68
2022/09/04 08:35:34;;;;;;;2.83;2.13;;;23.60;99.90;;;;;;5032652;28;20524;-64
2022/09/04 08:38:20;;;;;;;2.83;2.63;;;23.70;99.90;;;;;;5031978;28;20472;-66
2022/09/04 08:41:21;;;;;;;2.57;2.37;;;23.70;99.90;;;;;;5032418;28;20485;-69
2022/09/04 08:44:21;;;;;;;2.90;2.20;;;23.60;99.90;;;;;;5032356;28;20469;-68
2022/09/04 08:47:19;;;;;;;2.40;2.30;;;23.70;99.90;;;;;;4996678;28;20560;-68
2022/09/04 08:50:21;;;;;;;2.20;2.10;;;23.70;99.90;;;;;;5019668;28;20449;-67
2022/09/04 08:53:26;;;;;;;2.60;2.50;;;23.70;99.90;;;;;;5021712;28;20507;-68
2022/09/04 08:56:14;;;;;;;3.53;2.30;;;23.70;99.90;;;;;;5009190;28;20499;-66
2022/09/04 08:59:16;;;;;;;2.60;2.40;;;23.70;99.90;;;;;;5031681;28;20454;-66
2022/09/04 09:02:30;;;;;;;2.83;2.53;;;23.70;99.90;;;;;;5023435;28;21019;-65
2022/09/04 09:05:40;;;;;;;2.30;2.10;;;23.70;99.90;;;;;;5006740;28;20520;-67
2022/09/04 09:08:46;;;;;;;2.73;2.63;;;23.70;99.90;;;;;;4968672;28;20476;-68
2022/09/04 09:11:42;;;;;;;2.50;2.40;;;23.70;99.90;;;;;;5009650;28;20879;-67
2022/09/04 09:14:57;;;;;;;2.37;2.27;;;23.80;99.90;;;;;;5027884;28;20804;-68
2022/09/04 09:17:37;;;;;;;2.70;2.60;;;23.80;99.90;;;;;;4958323;28;20498;-67
2022/09/04 09:20:25;;;;;;;2.40;2.20;;;23.80;99.90;;;;;;4970843;28;20518;-67
2022/09/04 09:23:20;;;;;;;2.43;2.33;;;23.80;99.90;;;;;;5018906;28;20520;-67
2022/09/04 09:25:52;;;;;;;2.90;2.53;;;23.80;99.90;;;;;;5030430;28;20473;-67
2022/09/04 09:29:07;;;;;;;2.50;2.30;;;23.80;99.90;;;;;;5031353;28;20473;-66
2022/09/04 09:32:16;;;;;;;2.73;2.60;;;23.80;99.90;;;;;;5031945;28;20496;-67
2022/09/04 09:35:18;;;;;;;2.40;2.20;;;23.90;99.90;;;;;;4976169;28;20832;-64
2022/09/04 09:38:15;;;;;;;2.47;2.27;;;23.90;99.90;;;;;;5031254;28;21004;-65
2022/09/04 09:41:13;;;;;;;2.53;2.40;;;23.90;99.90;;;;;;5031833;28;20872;-63
2022/09/04 09:44:19;;;;;;;3.00;2.80;;;23.90;99.90;;;;;;5031464;28;20573;-64
2022/09/04 09:47:43;;;;;;;2.30;2.10;;;23.90;99.90;;;;;;5031201;28;20540;-69
2022/09/04 09:50:53;;;;;;;2.00;1.90;;;23.90;99.90;;;;;;4969319;28;20546;-66
2022/09/04 09:53:51;;;;;;;2.80;2.60;;;23.90;99.90;;;;;;4970200;28;20451;-66
2022/09/04 09:56:54;;;;;;;2.70;2.60;;;23.90;99.90;;;;;;5027879;28;20889;-65
2022/09/04 10:00:03;;;;;;;1.90;1.80;;;24.00;99.90;;;;;;5031774;28;20437;-65
2022/09/04 10:03:00;;;;;;;2.30;2.10;;;23.90;99.90;;;;;;5031331;28;20895;-66
2022/09/04 10:06:09;;;;;;;2.90;2.07;;;23.90;99.90;;;;;;5031443;28;20884;-67
2022/09/04 10:09:02;;;;;;;2.47;2.33;;;24.00;99.90;;;;;;5011927;28;20541;-65
2022/09/04 10:12:05;;;;;;;2.30;2.20;;;24.00;99.90;;;;;;4986576;28;20533;-66
2022/09/04 10:15:13;;;;;;;2.10;2.00;;;24.00;99.90;;;;;;5012421;28;20449;-64
2022/09/04 10:18:07;;;;;;;2.50;2.37;;;24.00;99.90;;;;;;5031333;28;20548;-63
2022/09/04 10:21:09;;;;;;;1.97;1.97;;;24.00;99.90;;;;;;5031306;28;20541;-66
2022/09/04 10:24:13;;;;;;;2.03;1.93;;;24.00;99.90;;;;;;5026255;28;20479;-66
2022/09/04 10:27:20;;;;;;;2.50;2.40;;;24.10;99.90;;;;;;5015846;28;20476;-66
2022/09/04 10:29:58;;;;;;;2.33;2.23;;;24.10;99.90;;;;;;5034714;28;20528;-66
2022/09/04 10:33:05;;;;;;;3.00;2.47;;;24.00;99.90;;;;;;5035077;28;20531;-66
2022/09/04 10:35:42;;;;;;;2.53;2.43;;;24.10;99.90;;;;;;5034240;28;21013;-66
2022/09/04 10:38:29;;;;;;;3.90;3.00;;;24.10;99.90;;;;;;5034767;28;20526;-66
2022/09/04 10:41:19;;;;;;;6.13;3.63;;;24.10;99.90;;;;;;5034945;28;20519;-66
2022/09/04 10:44:11;;;;;;;12.50;4.53;;;24.10;99.90;;;;;;5034232;28;20504;-67
2022/09/04 10:46:46;;;;;;;10.97;4.20;;;24.10;99.90;;;;;;5021668;28;20500;-70
2022/09/04 10:49:40;;;;;;;13.77;5.30;;;24.20;99.90;;;;;;5034779;28;20487;-70
2022/09/04 10:52:32;;;;;;;13.03;5.43;;;24.20;99.90;;;;;;5032748;28;20449;-67
2022/09/04 10:55:35;;;;;;;13.57;5.50;;;24.20;99.90;;;;;;5034117;28;20531;-70
2022/09/04 10:58:23;;;;;;;6.73;4.20;;;24.20;99.90;;;;;;5033692;28;21014;-70
2022/09/04 11:01:05;;;;;;;8.33;4.20;;;24.20;99.90;;;;;;5033837;28;20439;-70
2022/09/04 11:04:01;;;;;;;10.43;4.20;;;24.20;99.90;;;;;;5034033;28;20480;-70
2022/09/04 11:07:10;;;;;;;6.93;4.07;;;24.20;99.90;;;;;;5034059;28;20475;-70
2022/09/04 11:09:57;;;;;;;8.03;4.57;;;24.20;99.90;;;;;;5026767;28;20457;-70
2022/09/04 11:12:50;;;;;;;9.57;5.03;;;24.20;99.90;;;;;;5034093;28;20969;-70
2022/09/04 11:15:43;;;;;;;11.73;4.37;;;24.20;99.90;;;;;;5034395;28;20536;-70
2022/09/04 11:18:55;;;;;;;7.27;4.67;;;24.20;99.90;;;;;;5034013;28;20453;-70
2022/09/04 11:22:02;;;;;;;6.93;4.03;;;24.20;99.90;;;;;;5033964;28;20451;-70
2022/09/04 11:25:03;;;;;;;7.07;4.40;;;24.20;99.90;;;;;;5033757;28;20515;-70
2022/09/04 11:27:53;;;;;;;6.70;4.03;;;24.20;99.90;;;;;;5033818;28;20465;-70
2022/09/04 11:30:24;;;;;;;7.80;4.73;;;24.20;99.90;;;;;;5033897;28;20453;-70
2022/09/04 11:33:37;;;;;;;11.60;4.80;;;24.20;99.90;;;;;;5033688;28;20457;-70
2022/09/04 11:36:40;;;;;;;6.70;3.47;;;24.20;99.90;;;;;;5033725;28;20856;-70
2022/09/04 11:39:28;;;;;;;5.40;3.53;;;24.20;99.90;;;;;;5010828;28;20539;-70
2022/09/04 11:42:25;;;;;;;8.10;3.73;;;24.20;99.90;;;;;;5033622;28;20532;-70
2022/09/04 11:45:29;;;;;;;3.20;2.90;;;24.20;99.90;;;;;;5033682;28;20923;-70
2022/09/04 11:48:20;;;;;;;4.30;3.80;;;24.20;99.90;;;;;;5033492;28;20548;-70
2022/09/04 11:51:17;;;;;;;7.50;3.30;;;24.20;99.90;;;;;;5033818;28;20535;-70
2022/09/04 11:54:15;;;;;;;4.20;3.10;;;24.20;99.90;;;;;;5033606;28;20441;-69
2022/09/04 11:56:57;;;;;;;4.43;3.20;;;24.30;99.90;;;;;;5033765;28;20505;-70
2022/09/04 11:59:54;;;;;;;5.03;3.23;;;24.20;99.90;;;;;;5033308;28;20484;-69
2022/09/04 12:03:02;;;;;;;3.67;2.90;;;24.20;99.90;;;;;;5033025;28;20965;-69
2022/09/04 12:05:54;;;;;;;3.67;3.37;;;24.20;99.90;;;;;;5033128;28;20447;-69
2022/09/04 12:08:45;;;;;;;4.57;3.00;;;24.30;99.90;;;;;;5020519;28;20535;-70
2022/09/04 12:12:09;;;;;;;8.80;3.00;;;24.20;99.90;;;;;;5033052;28;20540;-70
2022/09/04 12:15:12;;;;;;;4.73;3.10;;;24.30;99.90;;;;;;4971758;28;20448;-70
2022/09/04 12:18:05;;;;;;;7.33;3.73;;;24.30;99.90;;;;;;4971847;28;20502;-70
2022/09/04 12:21:11;;;;;;;5.30;3.07;;;24.30;99.90;;;;;;5032858;28;20449;-69
2022/09/04 12:24:05;;;;;;;3.33;2.33;;;24.30;99.90;;;;;;5007052;28;20485;-70
2022/09/04 12:27:10;;;;;;;5.43;2.30;;;24.30;99.90;;;;;;5026954;28;20899;-70
2022/09/04 12:30:05;;;;;;;2.60;2.40;;;24.30;99.90;;;;;;5032814;28;20529;-70
2022/09/04 12:32:58;;;;;;;5.23;3.00;;;24.30;99.70;;;;;;5032789;28;20445;-69
2022/09/04 12:35:49;;;;;;;3.00;2.70;;;24.30;99.70;;;;;;5032583;28;20560;-70
2022/09/04 12:38:47;;;;;;;4.53;2.27;;;24.30;99.40;;;;;;5032678;28;20456;-69
2022/09/04 12:41:17;;;;;;;3.20;2.73;;;24.30;99.50;;;;;;5032656;28;20445;-70
2022/09/04 12:43:56;;;;;;;3.07;2.80;;;24.40;99.60;;;;;;5032270;28;20846;-70
2022/09/04 12:46:49;;;;;;;6.70;2.93;;;24.40;99.30;;;;;;5032439;28;20998;-70
2022/09/04 12:49:41;;;;;;;4.70;3.13;;;24.40;99.00;;;;;;5032361;28;20442;-70
2022/09/04 12:52:17;;;;;;;3.53;2.77;;;24.40;99.00;;;;;;5031903;28;20532;-70
2022/09/04 12:55:00;;;;;;;2.57;2.47;;;24.40;98.80;;;;;;5032256;28;20444;-70
2022/09/04 12:57:35;;;;;;;2.30;2.10;;;24.40;98.50;;;;;;5032019;28;20517;-69
2022/09/04 13:00:08;;;;;;;3.17;2.30;;;24.40;98.40;;;;;;5032234;28;20934;-69
2022/09/04 13:02:48;;;;;;;3.20;2.50;;;24.40;98.20;;;;;;5032084;28;20864;-69
2022/09/04 13:05:35;;;;;;;4.50;2.97;;;24.40;97.90;;;;;;5032030;28;20536;-70
2022/09/04 13:08:18;;;;;;;2.70;2.50;;;24.40;97.70;;;;;;5032207;28;21000;-70
2022/09/04 13:10:56;;;;;;;2.23;1.77;;;24.50;97.80;;;;;;5032172;28;20922;-70
2022/09/04 13:13:35;;;;;;;2.30;2.20;;;24.40;97.40;;;;;;5031823;28;20441;-70
2022/09/04 13:16:11;;;;;;;3.40;2.20;;;24.50;97.20;;;;;;5031973;28;20535;-70
2022/09/04 13:18:50;;;;;;;3.63;3.40;;;24.50;97.00;;;;;;5031938;28;20887;-70
2022/09/04 13:21:32;;;;;;;3.27;2.17;;;24.50;97.00;;;;;;5031785;28;20444;-70
2022/09/04 13:24:15;;;;;;;3.70;2.30;;;24.50;96.90;;;;;;5031571;28;20491;-70
2022/09/04 13:26:56;;;;;;;1.97;1.83;;;24.50;96.70;;;;;;5031960;28;20508;-70
2022/09/04 13:29:38;;;;;;;3.27;3.00;;;24.50;96.50;;;;;;5031836;28;20535;-70
2022/09/04 13:32:22;;;;;;;4.50;3.20;;;24.50;96.30;;;;;;5031972;28;20926;-70
2022/09/04 13:35:08;;;;;;;2.83;2.63;;;24.50;96.20;;;;;;5031717;28;20516;-70
2022/09/04 13:37:44;;;;;;;3.63;2.60;;;24.50;96.20;;;;;;5031616;28;20473;-70
2022/09/04 13:40:25;;;;;;;2.77;2.57;;;24.50;96.40;;;;;;5031535;28;20446;-70
2022/09/04 13:43:17;;;;;;;2.90;2.40;;;24.50;96.10;;;;;;5031470;28;20452;-70
2022/09/04 13:45:47;;;;;;;2.40;2.20;;;24.50;96.00;;;;;;5025116;28;20897;-70
2022/09/04 13:48:20;;;;;;;2.10;2.00;;;24.60;95.80;;;;;;5031439;28;20473;-70
2022/09/04 13:50:54;;;;;;;1.80;1.70;;;24.60;95.70;;;;;;5031595;28;20445;-70
2022/09/04 13:53:24;;;;;;;1.70;1.60;;;24.60;95.60;;;;;;5031353;28;20451;-70
2022/09/04 13:55:58;;;;;;;2.00;1.90;;;24.60;95.50;;;;;;5031336;28;20469;-70
2022/09/04 13:58:32;;;;;;;1.90;1.80;;;24.60;95.70;;;;;;5031507;28;20484;-70
2022/09/04 14:01:01;;;;;;;2.50;2.20;;;24.60;95.30;;;;;;5031420;28;20485;-70
2022/09/04 14:03:37;;;;;;;2.40;1.80;;;24.60;95.20;;;;;;5033180;28;20571;-70
2022/09/04 14:06:05;;;;;;;2.30;1.80;;;24.60;95.10;;;;;;5035454;28;20876;-70
2022/09/04 14:08:33;;;;;;;1.83;1.73;;;24.60;95.10;;;;;;5035360;28;20552;-70
2022/09/04 14:11:20;;;;;;;1.60;1.43;;;24.60;95.00;;;;;;5035239;28;20445;-70
2022/09/04 14:14:10;;;;;;;1.80;1.70;;;24.60;94.90;;;;;;5035214;28;20437;-69
2022/09/04 14:16:38;;;;;;;3.33;3.13;;;24.60;94.90;;;;;;5035366;28;20476;-70
2022/09/04 14:19:25;;;;;;;2.40;2.13;;;24.70;94.90;;;;;;5035188;28;20535;-70
2022/09/04 14:22:10;;;;;;;2.00;1.90;;;24.70;94.80;;;;;;5035151;28;20539;-70
2022/09/04 14:24:42;;;;;;;2.27;1.73;;;24.70;94.70;;;;;;5035024;28;20518;-71
2022/09/04 14:27:17;;;;;;;2.83;2.63;;;24.70;94.60;;;;;;5035080;28;20465;-70
2022/09/04 14:29:56;;;;;;;1.90;1.80;;;24.70;94.50;;;;;;5035126;28;20443;-70
2022/09/04 14:32:32;;;;;;;2.30;2.10;;;24.70;94.40;;;;;;5034790;28;20984;-70
2022/09/04 14:35:09;;;;;;;3.37;3.17;;;24.70;94.30;;;;;;5034898;28;20528;-71
2022/09/04 14:37:58;;;;;;;1.60;1.50;;;24.70;94.30;;;;;;5034932;28;20469;-70
2022/09/04 14:40:30;;;;;;;2.17;1.63;;;24.70;94.10;;;;;;5034910;28;20452;-70
2022/09/04 14:43:07;;;;;;;1.90;1.80;;;24.70;94.00;;;;;;5034608;28;20535;-70
2022/09/04 14:46:05;;;;;;;1.50;1.50;;;24.70;93.90;;;;;;5034649;28;20519;-71
2022/09/04 14:48:39;;;;;;;1.60;1.50;;;24.70;93.90;;;;;;5034662;28;20466;-71
2022/09/04 14:51:14;;;;;;;1.60;1.53;;;24.70;93.80;;;;;;5034682;28;20452;-71
2022/09/04 14:53:47;;;;;;;1.90;1.80;;;24.70;93.70;;;;;;5034281;28;20457;-71
2022/09/04 14:56:33;;;;;;;2.40;2.30;;;24.80;93.60;;;;;;5034417;28;20472;-70
2022/09/04 14:59:10;;;;;;;2.10;2.00;;;24.80;93.50;;;;;;5034520;28;20528;-70
2022/09/04 15:01:54;;;;;;;1.80;1.70;;;24.80;93.50;;;;;;5034460;28;20551;-70
2022/09/04 15:04:24;;;;;;;1.70;1.60;;;24.80;93.40;;;;;;5034166;28;20563;-70
2022/09/04 15:06:57;;;;;;;1.87;1.77;;;24.80;93.30;;;;;;5034549;28;20563;-70
2022/09/04 15:09:29;;;;;;;2.10;2.00;;;24.80;93.20;;;;;;5034505;28;20620;-70
2022/09/04 15:12:16;;;;;;;1.80;1.70;;;24.80;93.10;;;;;;5034275;28;20472;-70
2022/09/04 15:14:47;;;;;;;1.60;1.60;;;24.80;93.00;;;;;;5033457;28;20441;-70
2022/09/04 15:17:27;;;;;;;1.40;1.30;;;24.90;93.10;;;;;;5034178;28;20561;-70
2022/09/04 15:19:58;;;;;;;2.13;2.03;;;24.90;93.40;;;;;;5034166;28;20459;-70
2022/09/04 15:22:32;;;;;;;1.97;1.80;;;24.90;93.00;;;;;;5034011;28;20882;-70
2022/09/04 15:25:03;;;;;;;2.00;1.90;;;24.90;92.80;;;;;;5033960;28;20512;-70
2022/09/04 15:27:39;;;;;;;1.60;1.60;;;24.90;92.80;;;;;;5034029;28;20600;-70
2022/09/04 15:30:17;;;;;;;1.30;1.30;;;24.90;92.70;;;;;;5034203;28;20452;-70
2022/09/04 15:32:46;;;;;;;1.20;1.20;;;24.90;92.60;;;;;;5033788;28;20628;-71
2022/09/04 15:35:16;;;;;;;1.60;1.50;;;24.90;92.60;;;;;;5033848;28;20540;-71
2022/09/04 15:37:46;;;;;;;1.50;1.40;;;24.90;92.50;;;;;;5033940;28;20548;-70
2022/09/04 15:40:23;;;;;;;1.87;1.77;;;24.90;92.50;;;;;;5033853;28;20816;-70
2022/09/04 15:43:09;;;;;;;2.57;2.47;;;24.90;92.40;;;;;;5033464;28;21028;-70
2022/09/04 15:45:44;;;;;;;1.73;1.63;;;24.90;92.30;;;;;;5033515;28;20572;-70
2022/09/04 15:48:38;;;;;;;1.60;1.60;;;24.90;92.20;;;;;;5033615;28;20445;-70
2022/09/04 15:51:19;;;;;;;1.60;1.60;;;25.00;92.30;;;;;;5033349;28;20483;-70
2022/09/04 15:54:00;;;;;;;3.13;1.90;;;25.00;92.50;;;;;;5033337;28;20801;-70
2022/09/04 15:56:35;;;;;;;1.63;1.63;;;25.00;92.10;;;;;;5033273;28;20492;-70
2022/09/04 15:59:10;;;;;;;1.67;1.63;;;24.90;92.00;;;;;;5033410;28;20451;-70